Time;durP1;ratioP1;P1;durP2;ratioP2;P2;SDS_P1;SDS_P2;PMS_P1;PMS_P2;Temp;Humidity;BMP_temperature;BMP_pressure;BME280_temperature;BME280_humidity;BME280_pressure;Samples;Min_cycle;Max_cycle;Signal;HPM_P1;HPM_P2
2023/10/27 00:01:56;;;;;;;6.43;2.67;;;;;;;6.68;100.00;98939.13;5056607;28;20202;-75
2023/10/27 00:04:22;;;;;;;2.50;2.30;;;;;;;6.62;100.00;98935.22;5052596;28;20333;-75
2023/10/27 00:06:50;;;;;;;4.10;2.87;;;;;;;6.57;100.00;98930.22;5058025;28;20530;-75
2023/10/27 00:09:16;;;;;;;3.90;3.03;;;;;;;6.53;100.00;98936.50;5055460;28;20678;-76
2023/10/27 00:11:42;;;;;;;5.57;3.53;;;;;;;6.52;100.00;98938.34;5058940;28;20242;-76
2023/10/27 00:14:09;;;;;;;3.67;2.93;;;;;;;6.46;100.00;98931.84;5057559;28;20211;-75
2023/10/27 00:16:35;;;;;;;4.10;2.83;;;;;;;6.44;100.00;98933.28;5058658;28;20202;-76
2023/10/27 00:19:01;;;;;;;4.07;2.83;;;;;;;6.37;100.00;98927.88;5058079;28;21117;-76
2023/10/27 00:21:27;;;;;;;4.40;3.30;;;;;;;6.33;100.00;98940.88;5053154;28;20227;-76
2023/10/27 00:23:55;;;;;;;9.47;3.27;;;;;;;6.30;100.00;98938.94;5061027;28;20191;-75
2023/10/27 00:26:22;;;;;;;3.77;2.53;;;;;;;6.29;100.00;98936.63;5052030;28;20662;-75
2023/10/27 00:28:51;;;;;;;28.57;3.53;;;;;;;6.25;100.00;98935.78;5052050;28;20292;-75
2023/10/27 00:31:17;;;;;;;4.27;3.00;;;;;;;6.22;100.00;98941.72;5036678;28;20214;-75
2023/10/27 00:33:43;;;;;;;3.20;2.63;;;;;;;6.18;100.00;98933.00;5046213;28;20294;-75
2023/10/27 00:36:10;;;;;;;3.57;2.70;;;;;;;6.14;100.00;98927.66;5041631;28;20297;-76
2023/10/27 00:38:37;;;;;;;3.33;2.50;;;;;;;6.12;100.00;98926.47;5044575;28;20218;-76
2023/10/27 00:41:05;;;;;;;3.47;2.23;;;;;;;6.07;100.00;98921.47;5055139;28;20218;-76
2023/10/27 00:43:31;;;;;;;14.80;2.90;;;;;;;6.05;100.00;98911.31;5052618;28;20585;-76
2023/10/27 00:46:00;;;;;;;4.30;2.67;;;;;;;6.02;100.00;98911.97;5058620;28;20222;-75
2023/10/27 00:48:27;;;;;;;3.70;2.60;;;;;;;6.02;100.00;98911.25;5057420;28;20199;-75
2023/10/27 00:50:53;;;;;;;3.00;2.40;;;;;;;6.01;100.00;98907.84;5045151;28;20218;-76
2023/10/27 00:53:21;;;;;;;3.63;2.83;;;;;;;5.97;100.00;98907.00;5055674;28;20238;-76
2023/10/27 00:55:48;;;;;;;3.57;3.10;;;;;;;5.93;100.00;98906.16;5047581;28;20198;-75
2023/10/27 00:58:16;;;;;;;4.00;2.77;;;;;;;5.87;100.00;98898.88;5046631;28;20227;-76
2023/10/27 01:00:43;;;;;;;3.83;2.83;;;;;;;5.89;100.00;98899.28;5057020;28;20268;-75
2023/10/27 01:03:10;;;;;;;4.53;3.40;;;;;;;5.85;100.00;98895.81;5057285;28;20286;-76
2023/10/27 01:05:36;;;;;;;4.03;3.07;;;;;;;5.80;100.00;98894.19;5048726;28;20211;-75
2023/10/27 01:08:03;;;;;;;3.97;2.83;;;;;;;5.75;100.00;98891.78;5040806;28;20207;-75
2023/10/27 01:10:30;;;;;;;4.63;2.87;;;;;;;5.73;100.00;98891.38;5044743;28;20437;-75
2023/10/27 01:12:57;;;;;;;3.57;2.70;;;;;;;5.68;100.00;98885.59;5058180;28;20737;-75
2023/10/27 01:15:25;;;;;;;4.87;2.90;;;;;;;5.65;100.00;98881.78;5053550;28;20285;-76
2023/10/27 01:17:51;;;;;;;4.17;2.53;;;;;;;5.63;100.00;98880.59;5053379;28;20266;-76
2023/10/27 01:20:17;;;;;;;3.10;2.33;;;;;;;5.61;100.00;98880.19;5052027;28;20222;-75
2023/10/27 01:22:47;;;;;;;7.83;2.57;;;;;;;5.65;100.00;98876.56;5046709;28;20195;-76
2023/10/27 01:25:14;;;;;;;5.10;3.10;;;;;;;5.56;100.00;98865.47;5058835;28;20400;-76
2023/10/27 01:27:40;;;;;;;3.87;2.87;;;;;;;5.56;100.00;98862.88;5041693;28;20206;-76
2023/10/27 01:30:08;;;;;;;7.07;3.00;;;;;;;5.52;100.00;98862.00;5035281;28;20215;-76
2023/10/27 01:32:34;;;;;;;5.17;3.20;;;;;;;5.53;100.00;98858.28;5055008;28;20202;-76
2023/10/27 01:35:01;;;;;;;3.43;2.60;;;;;;;5.52;100.00;98859.38;5052412;28;20214;-76
2023/10/27 01:37:27;;;;;;;4.63;3.40;;;;;;;5.52;100.00;98850.75;5059268;28;20198;-76
2023/10/27 01:39:56;;;;;;;5.63;3.03;;;;;;;5.53;100.00;98850.44;5054135;28;20343;-76
2023/10/27 01:42:23;;;;;;;6.30;3.60;;;;;;;5.48;100.00;98842.81;5058476;28;20257;-76
2023/10/27 01:44:49;;;;;;;4.90;3.53;;;;;;;5.47;100.00;98841.28;5060314;28;20196;-76
2023/10/27 01:47:16;;;;;;;6.63;2.80;;;;;;;5.44;100.00;98830.72;5039628;28;20476;-75
2023/10/27 01:49:42;;;;;;;6.87;2.77;;;;;;;5.41;100.00;98841.84;5033768;28;20232;-75
2023/10/27 01:52:08;;;;;;;6.27;3.87;;;;;;;5.36;100.00;98847.31;5039702;28;20211;-76
2023/10/27 01:54:35;;;;;;;5.10;3.57;;;;;;;5.30;100.00;98841.59;5041264;28;20210;-75
2023/10/27 01:57:03;;;;;;;6.80;3.50;;;;;;;5.34;100.00;98836.44;5042674;28;20210;-76
2023/10/27 01:59:29;;;;;;;3.90;2.93;;;;;;;5.38;100.00;98843.28;5053139;28;20191;-75
2023/10/27 02:01:56;;;;;;;7.03;3.00;;;;;;;5.34;100.00;98845.03;5056948;28;20210;-76
2023/10/27 02:04:22;;;;;;;5.57;3.13;;;;;;;5.31;100.00;98844.94;5033850;28;20813;-76
2023/10/27 02:06:48;;;;;;;4.20;3.20;;;;;;;5.32;100.00;98842.00;5038856;28;20208;-76
2023/10/27 02:09:16;;;;;;;4.27;3.17;;;;;;;5.28;100.00;98848.25;5046463;28;20216;-76
2023/10/27 02:11:42;;;;;;;3.70;3.00;;;;;;;5.25;100.00;98847.06;5056481;28;20218;-76
2023/10/27 02:14:10;;;;;;;5.20;3.27;;;;;;;5.22;100.00;98852.16;5048119;28;20308;-76
2023/10/27 02:16:36;;;;;;;3.57;2.70;;;;;;;5.23;100.00;98851.84;5045905;28;20194;-76
2023/10/27 02:19:03;;;;;;;4.20;2.97;;;;;;;5.17;100.00;98855.78;5047216;28;20194;-76
2023/10/27 02:21:29;;;;;;;5.57;2.70;;;;;;;5.17;100.00;98852.38;5038846;28;20291;-76
2023/10/27 02:23:56;;;;;;;5.03;3.10;;;;;;;5.16;100.00;98856.88;5058383;28;20649;-76
2023/10/27 02:26:22;;;;;;;7.97;2.67;;;;;;;5.13;100.00;98854.16;5047010;28;20208;-76
2023/10/27 02:28:48;;;;;;;3.57;2.40;;;;;;;5.14;100.00;98847.84;5044578;28;20562;-76
2023/10/27 02:31:16;;;;;;;6.13;2.60;;;;;;;5.11;100.00;98840.63;5042965;28;20215;-75
2023/10/27 02:33:42;;;;;;;4.87;2.70;;;;;;;5.09;100.00;98848.06;5048693;28;20310;-76
2023/10/27 02:36:09;;;;;;;2.60;2.17;;;;;;;5.03;100.00;98844.16;5059339;28;20286;-76
2023/10/27 02:38:36;;;;;;;3.77;2.27;;;;;;;5.03;100.00;98844.16;5044660;28;20210;-76
2023/10/27 02:41:07;;;;;;;3.53;2.40;;;;;;;5.04;100.00;98849.06;5054008;28;20219;-76
2023/10/27 02:43:34;;;;;;;3.70;2.63;;;;;;;5.03;100.00;98849.38;5048367;28;20199;-76
2023/10/27 02:46:01;;;;;;;5.13;3.37;;;;;;;5.00;100.00;98852.66;5043965;28;20199;-76
2023/10/27 02:48:28;;;;;;;4.60;3.13;;;;;;;5.01;100.00;98862.03;5032571;28;20206;-76
2023/10/27 02:50:55;;;;;;;5.63;2.57;;;;;;;5.03;100.00;98857.97;5033494;28;20249;-76
2023/10/27 02:53:21;;;;;;;4.40;2.83;;;;;;;5.03;100.00;98854.63;5026445;28;20213;-76
2023/10/27 02:55:48;;;;;;;4.20;3.00;;;;;;;5.00;100.00;98860.50;5024568;28;20225;-76
2023/10/27 02:58:14;;;;;;;7.27;4.47;;;;;;;5.03;100.00;98859.84;5042183;28;20219;-76
2023/10/27 03:00:40;;;;;;;6.60;3.73;;;;;;;5.01;100.00;98862.03;5025286;28;21141;-76
2023/10/27 03:03:07;;;;;;;4.67;3.50;;;;;;;5.01;100.00;98864.63;5029424;28;20204;-76
2023/10/27 03:05:35;;;;;;;5.23;4.23;;;;;;;5.03;100.00;98865.81;5032252;28;20218;-75
2023/10/27 03:08:01;;;;;;;4.90;3.70;;;;;;;5.00;100.00;98858.66;5033380;28;20199;-76
2023/10/27 03:10:28;;;;;;;4.83;3.73;;;;;;;5.00;100.00;98857.88;5029542;28;20229;-76
2023/10/27 03:12:55;;;;;;;5.20;3.90;;;;;;;4.98;100.00;98860.06;5026056;28;20207;-76
2023/10/27 03:15:21;;;;;;;10.63;4.33;;;;;;;5.00;100.00;98857.88;5024568;28;20242;-76
2023/10/27 03:17:48;;;;;;;6.83;5.00;;;;;;;5.02;100.00;98859.06;5042807;28;20212;-76
2023/10/27 03:20:15;;;;;;;10.47;5.77;;;;;;;5.05;100.00;98858.44;5041988;28;21019;-76
2023/10/27 03:22:43;;;;;;;6.93;5.33;;;;;;;5.07;100.00;98858.84;5030493;28;20206;-76
2023/10/27 03:25:11;;;;;;;9.77;5.37;;;;;;;5.10;100.00;98854.81;5040207;28;20195;-76
2023/10/27 03:27:37;;;;;;;6.87;5.00;;;;;;;5.13;100.00;98849.69;5030780;28;20209;-76
2023/10/27 03:30:04;;;;;;;7.00;5.27;;;;;;;5.14;100.00;98848.56;5023374;28;20232;-76
2023/10/27 03:32:30;;;;;;;10.63;5.17;;;;;;;5.16;100.00;98845.63;5031112;28;20217;-76
2023/10/27 03:34:57;;;;;;;6.97;5.30;;;;;;;5.16;100.00;98845.63;5042904;28;21652;-76
2023/10/27 03:37:26;;;;;;;8.20;5.13;;;;;;;5.18;100.00;98840.84;5043331;28;20673;-76
2023/10/27 03:39:54;;;;;;;7.37;5.33;;;;;;;5.17;100.00;98850.53;5041174;28;20459;-76
2023/10/27 03:42:20;;;;;;;9.83;5.90;;;;;;;5.18;100.00;98844.22;5041698;28;20213;-76
2023/10/27 03:44:47;;;;;;;8.43;5.50;;;;;;;5.21;100.00;98848.78;5025248;28;20583;-76
2023/10/27 03:47:15;;;;;;;10.60;5.97;;;;;;;5.22;100.00;98839.06;5023314;28;20512;-76
2023/10/27 03:49:41;;;;;;;6.60;5.10;;;;;;;5.24;100.00;98842.13;5022568;28;20239;-76
2023/10/27 03:52:09;;;;;;;7.53;4.73;;;;;;;5.27;100.00;98841.47;5038696;28;20235;-76
2023/10/27 03:54:35;;;;;;;8.30;5.30;;;;;;;5.31;100.00;98839.72;5039879;28;20230;-76
2023/10/27 03:57:03;;;;;;;8.83;5.20;;;;;;;5.29;100.00;98826.22;5040971;28;20245;-76
2023/10/27 03:59:29;;;;;;;9.80;6.07;;;;;;;5.27;100.00;98836.22;5039136;28;20206;-76
2023/10/27 04:01:56;;;;;;;10.10;5.90;;;;;;;5.24;100.00;98826.44;5020765;28;21062;-76
2023/10/27 04:04:22;;;;;;;9.40;6.23;;;;;;;5.25;100.00;98828.72;5022709;28;20562;-75
2023/10/27 04:06:49;;;;;;;8.57;5.63;;;;;;;5.24;100.00;98823.81;5041026;28;20196;-76
2023/10/27 04:09:15;;;;;;;7.00;5.07;;;;;;;5.26;100.00;98827.63;5041299;28;20343;-76
2023/10/27 04:11:42;;;;;;;6.63;4.77;;;;;;;5.26;100.00;98814.56;5040917;28;20309;-76
2023/10/27 04:14:11;;;;;;;6.93;4.73;;;;;;;5.26;100.00;98814.56;5042302;28;20207;-76
2023/10/27 04:16:38;;;;;;;9.57;5.17;;;;;;;5.29;100.00;98813.13;5043404;28;20558;-75
2023/10/27 04:19:04;;;;;;;6.53;4.77;;;;;;;5.26;100.00;98803.31;5044855;28;20195;-76
2023/10/27 04:21:31;;;;;;;6.43;4.50;;;;;;;5.26;100.00;98811.94;5033207;28;20238;-77
2023/10/27 04:23:59;;;;;;;6.53;4.43;;;;;;;5.27;100.00;98818.69;5044706;28;20525;-77
2023/10/27 04:26:25;;;;;;;8.10;5.53;;;;;;;5.30;100.00;98810.19;5043362;28;20226;-77
2023/10/27 04:28:52;;;;;;;6.23;4.27;;;;;;;5.29;100.00;98813.88;5024692;28;20214;-74
2023/10/27 04:31:20;;;;;;;7.97;5.00;;;;;;;5.33;100.00;98814.72;5041336;28;20229;-73
2023/10/27 04:33:49;;;;;;;6.37;4.70;;;;;;;5.32;100.00;98813.22;5026535;28;20211;-76
2023/10/27 04:36:15;;;;;;;5.87;4.37;;;;;;;5.34;100.00;98811.00;5044223;28;21391;-76
2023/10/27 04:38:42;;;;;;;6.87;4.67;;;;;;;5.35;100.00;98819.63;5039574;28;20215;-75
2023/10/27 04:41:11;;;;;;;5.33;3.97;;;;;;;5.34;100.00;98824.09;5022975;28;20290;-75
2023/10/27 04:43:37;;;;;;;6.77;4.73;;;;;;;5.35;100.00;98814.41;5043672;28;20298;-76
2023/10/27 04:46:04;;;;;;;7.67;5.00;;;;;;;5.35;100.00;98819.63;5042411;28;20368;-77
2023/10/27 04:48:32;;;;;;;8.10;5.50;;;;;;;5.35;100.00;98815.19;5026360;28;20304;-77
2023/10/27 04:51:02;;;;;;;7.10;5.10;;;;;;;5.39;100.00;98823.13;5042611;28;20289;-75
2023/10/27 04:53:31;;;;;;;6.33;4.57;;;;;;;5.39;100.00;98826.47;5043888;28;20210;-77
2023/10/27 04:55:58;;;;;;;8.17;5.03;;;;;;;5.38;100.00;98826.84;5042797;28;20258;-75
2023/10/27 04:58:25;;;;;;;7.40;4.77;;;;;;;5.38;100.00;98829.44;5025190;28;20229;-77
2023/10/27 05:00:51;;;;;;;7.50;4.97;;;;;;;5.39;100.00;98823.88;5039322;28;20223;-77
2023/10/27 05:03:18;;;;;;;8.70;5.37;;;;;;;5.38;100.00;98814.50;5040306;28;20946;-76
2023/10/27 05:05:46;;;;;;;10.47;5.77;;;;;;;5.38;100.00;98819.00;5029809;28;20210;-75
2023/10/27 05:08:12;;;;;;;7.70;5.30;;;;;;;5.37;100.00;98809.59;5041944;28;20281;-75
2023/10/27 05:10:40;;;;;;;7.57;4.97;;;;;;;5.38;100.00;98805.91;5040681;28;20226;-77
2023/10/27 05:13:06;;;;;;;16.47;7.23;;;;;;;5.38;100.00;98806.63;5040702;28;20215;-76
2023/10/27 05:15:33;;;;;;;12.47;8.17;;;;;;;5.39;100.00;98804.81;5028575;28;20408;-75
2023/10/27 05:18:04;;;;;;;16.93;9.43;;;;;;;5.36;100.00;98801.00;5038719;28;20203;-76
2023/10/27 05:20:31;;;;;;;18.83;10.50;;;;;;;5.37;100.00;98786.81;5039480;28;20689;-77
2023/10/27 05:23:01;;;;;;;21.00;11.33;;;;;;;5.39;100.00;98794.31;5022016;28;20203;-74
2023/10/27 05:25:28;;;;;;;21.73;11.07;;;;;;;5.37;100.00;98786.81;5038038;28;20710;-75
2023/10/27 05:27:54;;;;;;;20.67;10.03;;;;;;;5.37;100.00;98783.41;5020336;28;20234;-76
2023/10/27 05:30:21;;;;;;;13.70;8.53;;;;;;;5.37;100.00;98773.72;5021960;28;20227;-75
2023/10/27 05:32:47;;;;;;;12.93;7.40;;;;;;;5.39;100.00;98768.91;5039694;28;20289;-76
2023/10/27 05:35:14;;;;;;;10.63;7.77;;;;;;;5.41;100.00;98776.44;5040470;28;20215;-76
2023/10/27 05:37:40;;;;;;;9.90;6.40;;;;;;;5.44;100.00;98783.63;5038906;28;20199;-76
2023/10/27 05:40:09;;;;;;;9.30;6.67;;;;;;;5.46;100.00;98790.03;5039777;28;20227;-76
2023/10/27 05:42:36;;;;;;;13.30;7.63;;;;;;;5.50;100.00;98787.50;5040363;28;20301;-76
2023/10/27 05:45:07;;;;;;;11.90;6.67;;;;;;;5.53;100.00;98794.69;5041284;28;20199;-75
2023/10/27 05:47:33;;;;;;;12.13;6.70;;;;;;;5.56;100.00;98804.50;5038326;28;20574;-76
2023/10/27 05:50:00;;;;;;;9.50;6.80;;;;;;;5.57;100.00;98806.00;5041528;28;21760;-75
2023/10/27 05:52:26;;;;;;;12.77;7.53;;;;;;;5.60;100.00;98807.97;5036823;28;20630;-74
2023/10/27 05:54:53;;;;;;;10.27;6.53;;;;;;;5.61;100.00;98812.09;5038830;28;20219;-76
2023/10/27 05:57:20;;;;;;;12.13;6.80;;;;;;;5.64;100.00;98827.91;5028119;28;21267;-76
2023/10/27 05:59:47;;;;;;;10.87;7.40;;;;;;;5.67;100.00;98831.72;5041829;28;20234;-75
2023/10/27 06:02:13;;;;;;;12.63;6.77;;;;;;;5.67;100.00;98826.47;5035623;28;20329;-74
2023/10/27 06:04:40;;;;;;;15.27;8.40;;;;;;;5.69;100.00;98821.69;5035942;28;21407;-76
2023/10/27 06:07:07;;;;;;;42.73;19.73;;;;;;;5.70;100.00;98816.09;5029048;28;20649;-75
2023/10/27 06:09:35;;;;;;;23.77;13.70;;;;;;;5.74;100.00;98810.94;5043706;28;20199;-76
2023/10/27 06:12:09;;;;;;;51.10;24.90;;;;;;;5.75;100.00;98812.47;5037773;28;20207;-74
2023/10/27 06:14:41;;;;;;;42.93;23.73;;;;;;;5.77;100.00;98813.66;5038569;28;20290;-75
2023/10/27 06:17:08;;;;;;;45.63;23.73;;;;;;;5.80;100.00;98807.03;5040037;28;20206;-77
2023/10/27 06:19:35;;;;;;;38.77;17.57;;;;;;;5.83;100.00;98809.72;5018030;28;20207;-76
2023/10/27 06:22:02;;;;;;;23.23;13.57;;;;;;;5.87;100.00;98809.81;5038896;28;20202;-76
2023/10/27 06:24:28;;;;;;;16.97;10.67;;;;;;;5.91;100.00;98802.81;5038771;28;20214;-76
2023/10/27 06:26:55;;;;;;;17.47;9.93;;;;;;;5.95;100.00;98804.41;5037274;28;20230;-75
2023/10/27 06:29:22;;;;;;;15.30;9.87;;;;;;;6.01;100.00;98813.53;5038104;28;20217;-76
2023/10/27 06:31:49;;;;;;;19.70;10.07;;;;;;;6.05;100.00;98803.91;5037801;28;20213;-76
2023/10/27 06:34:19;;;;;;;17.00;9.30;;;;;;;6.09;100.00;98815.25;5036900;28;20199;-76
2023/10/27 06:36:45;;;;;;;17.47;8.53;;;;;;;6.13;100.00;98808.22;5037380;28;21166;-75
2023/10/27 06:39:16;;;;;;;16.77;9.90;;;;;;;6.19;100.00;98822.59;5018345;28;20585;-75
2023/10/27 06:41:43;;;;;;;17.10;8.87;;;;;;;6.26;100.00;98827.25;5045261;28;20231;-76
2023/10/27 06:44:09;;;;;;;19.20;7.90;;;;;;;6.30;100.00;98823.59;5044907;28;20199;-76
2023/10/27 06:46:40;;;;;;;15.03;8.93;;;;;;;6.38;100.00;98827.16;5045885;28;20223;-76
2023/10/27 06:49:09;;;;;;;15.57;8.70;;;;;;;6.45;100.00;98828.06;5044283;28;20710;-76
2023/10/27 06:51:35;;;;;;;17.23;8.57;;;;;;;6.52;100.00;98833.47;5033889;28;20231;-76
2023/10/27 06:54:02;;;;;;;19.47;9.17;;;;;;;6.59;100.00;98833.66;5045673;28;20203;-75
2023/10/27 06:56:28;;;;;;;16.73;9.33;;;;;;;6.67;100.00;98839.78;5045365;28;20227;-76
2023/10/27 06:58:54;;;;;;;17.10;9.70;;;;;;;6.74;100.00;98845.22;5030019;28;20292;-76
2023/10/27 07:01:23;;;;;;;18.93;11.67;;;;;;;6.80;100.00;98844.59;5049921;28;20227;-76
2023/10/27 07:03:53;;;;;;;16.37;10.00;;;;;;;6.90;100.00;98840.69;5031247;28;20215;-76
2023/10/27 07:06:20;;;;;;;20.20;10.80;;;;;;;6.96;100.00;98844.56;5049838;28;20206;-75
2023/10/27 07:08:47;;;;;;;18.50;9.97;;;;;;;7.02;100.00;98837.94;5033817;28;20212;-75
2023/10/27 07:11:14;;;;;;;17.60;9.30;;;;;;;7.08;100.00;98841.81;5051795;28;20230;-74
2023/10/27 07:13:40;;;;;;;39.43;19.17;;;;;;;7.14;100.00;98835.19;5051553;28;20195;-74
2023/10/27 07:16:07;;;;;;;24.97;13.27;;;;;;;7.19;100.00;98834.94;5053683;28;20298;-74
2023/10/27 07:18:33;;;;;;;50.80;21.97;;;;;;;7.25;100.00;98841.41;5051421;28;20808;-74
2023/10/27 07:21:00;;;;;;;63.80;29.10;;;;;;;7.30;100.00;98839.25;5054406;28;20312;-74
2023/10/27 07:23:28;;;;;;;31.13;17.00;;;;;;;7.35;100.00;98839.00;5053363;28;20250;-74
2023/10/27 07:25:56;;;;;;;42.73;26.10;;;;;;;7.41;100.00;98836.88;5053447;28;20254;-75
2023/10/27 07:28:24;;;;;;;25.77;15.30;;;;;;;7.45;100.00;98841.06;5036884;28;20234;-75
2023/10/27 07:30:50;;;;;;;22.37;12.83;;;;;;;7.50;100.00;98837.41;5054975;28;20224;-75
2023/10/27 07:33:19;;;;;;;23.17;14.67;;;;;;;7.55;100.00;98837.88;5054017;28;20200;-75
2023/10/27 07:35:47;;;;;;;24.80;14.80;;;;;;;7.61;100.00;98836.50;5036660;28;20331;-75
2023/10/27 07:38:14;;;;;;;23.03;13.77;;;;;;;7.65;100.00;98832.06;5053590;28;20212;-74
2023/10/27 07:40:43;;;;;;;25.73;13.23;;;;;;;7.71;100.00;98837.81;5054954;28;20832;-75
2023/10/27 07:43:12;;;;;;;20.30;12.47;;;;;;;7.75;100.00;98839.38;5040275;28;20293;-75
2023/10/27 07:45:38;;;;;;;23.17;12.93;;;;;;;7.80;100.00;98844.34;5053570;28;20283;-75
2023/10/27 07:48:06;;;;;;;20.43;12.60;;;;;;;7.84;100.00;98839.16;5058208;28;20195;-75
2023/10/27 07:50:35;;;;;;;24.97;12.87;;;;;;;7.87;100.00;98838.47;5055314;28;20315;-75
2023/10/27 07:53:06;;;;;;;20.40;12.20;;;;;;;7.92;100.00;98832.94;5056302;28;20203;-75
2023/10/27 07:55:32;;;;;;;21.53;11.83;;;;;;;7.96;100.00;98831.09;5053108;28;20270;-75
2023/10/27 07:58:00;;;;;;;18.97;11.77;;;;;;;7.98;100.00;98840.16;5054107;28;20717;-75
2023/10/27 08:00:32;;;;;;;22.37;13.57;;;;;;;8.02;100.00;98840.25;5055277;28;20225;-74
2023/10/27 08:02:59;;;;;;;27.83;16.27;;;;;;;8.06;100.00;98841.03;5054504;28;20690;-75
2023/10/27 08:05:28;;;;;;;22.97;15.00;;;;;;;8.09;100.00;98843.75;5045042;28;20227;-75
2023/10/27 08:07:57;;;;;;;25.23;13.40;;;;;;;8.14;100.00;98837.44;5056088;28;20215;-75
2023/10/27 08:10:24;;;;;;;21.47;15.60;;;;;;;8.18;100.00;98838.25;5054843;28;20779;-74
2023/10/27 08:12:51;;;;;;;24.40;14.73;;;;;;;8.23;100.00;98844.00;5054961;28;20740;-75
2023/10/27 08:15:20;;;;;;;27.10;17.93;;;;;;;8.28;100.00;98838.44;5054634;28;20288;-75
2023/10/27 08:17:49;;;;;;;23.53;14.60;;;;;;;8.32;100.00;98834.00;5043299;28;20308;-75
2023/10/27 08:20:17;;;;;;;21.10;13.17;;;;;;;8.36;100.00;98839.31;5057474;28;20302;-75
2023/10/27 08:22:45;;;;;;;28.37;15.17;;;;;;;8.39;100.00;98830.72;5054659;28;20205;-75
2023/10/27 08:25:15;;;;;;;26.80;14.63;;;;;;;8.44;100.00;98827.81;5050348;28;20284;-74
2023/10/27 08:27:44;;;;;;;27.27;14.40;;;;;;;8.47;100.00;98829.72;5032789;28;20210;-76
2023/10/27 08:30:14;;;;;;;25.77;15.90;;;;;;;8.51;100.00;98820.78;5030742;28;20212;-75
2023/10/27 08:32:42;;;;;;;26.97;14.87;;;;;;;8.58;100.00;98834.03;5038996;28;20299;-75
2023/10/27 08:35:10;;;;;;;33.97;18.80;;;;;;;8.63;100.00;98830.31;5053229;28;20492;-75
2023/10/27 08:37:39;;;;;;;32.30;16.27;;;;;;;8.68;100.00;98830.03;5055961;28;20247;-75
2023/10/27 08:40:11;;;;;;;33.53;16.43;;;;;;;8.73;100.00;98830.47;5056207;28;20320;-75
2023/10/27 08:42:37;;;;;;;35.63;19.00;;;;;;;8.78;100.00;98832.81;5055525;28;20219;-75
2023/10/27 08:45:05;;;;;;;36.27;18.60;;;;;;;8.83;100.00;98837.78;5053616;28;20213;-75
2023/10/27 08:47:34;;;;;;;31.03;17.73;;;;;;;8.89;100.00;98838.97;5054057;28;20684;-75
2023/10/27 08:50:03;;;;;;;37.77;18.23;;;;;;;8.94;100.00;98835.25;5056275;28;20780;-75
2023/10/27 08:52:32;;;;;;;35.60;19.53;;;;;;;8.99;100.00;98835.72;5049451;28;20220;-74
2023/10/27 08:55:02;;;;;;;40.30;21.40;;;;;;;9.04;100.00;98830.16;5042227;28;20238;-75
2023/10/27 08:57:27;;;;;;;33.83;17.63;;;;;;;9.08;100.00;98827.56;5054736;28;20688;-75
2023/10/27 08:59:58;;;;;;;37.37;19.13;;;;;;;9.11;100.00;98827.59;5051508;28;20222;-74
2023/10/27 09:02:29;;;;;;;36.70;18.73;;;;;;;9.15;100.00;98823.16;5053805;28;20636;-75
2023/10/27 09:05:04;;;;;;;34.37;17.13;;;;;;;9.18;100.00;98822.44;5052889;28;20252;-77
2023/10/27 09:07:32;;;;;;;34.03;16.77;;;;;;;9.22;100.00;98820.59;5051090;28;20375;-76
2023/10/27 09:09:58;;;;;;;29.73;16.83;;;;;;;9.25;100.00;98814.63;5042218;28;20247;-77
2023/10/27 09:12:27;;;;;;;40.10;20.50;;;;;;;9.29;100.00;98810.16;5025614;28;20214;-77
2023/10/27 09:15:04;;;;;;;38.47;20.20;;;;;;;9.33;100.00;98815.47;5025861;28;20672;-78
2023/10/27 09:17:30;;;;;;;50.13;29.97;;;;;;;9.36;100.00;98815.50;5023684;28;20234;-77
2023/10/27 09:20:09;;;;;;;46.80;27.67;;;;;;;9.40;100.00;98816.28;5023803;28;20227;-77
2023/10/27 09:22:36;;;;;;;42.77;22.47;;;;;;;9.44;100.00;98816.34;5024172;28;20210;-77
2023/10/27 09:25:13;;;;;;;36.23;19.90;;;;;;;9.46;100.00;98820.13;5014106;28;20207;-78
2023/10/27 09:27:45;;;;;;;34.57;17.13;;;;;;;9.53;100.00;98816.81;5023261;28;21319;-76
2023/10/27 09:30:13;;;;;;;33.10;17.77;;;;;;;9.54;100.00;98815.69;5032943;28;20226;-76
2023/10/27 09:32:40;;;;;;;30.73;16.17;;;;;;;9.56;100.00;98808.19;5048408;28;20213;-75
2023/10/27 09:35:10;;;;;;;29.03;17.43;;;;;;;9.60;100.00;98816.88;5043089;28;20231;-76
2023/10/27 09:37:38;;;;;;;34.30;16.57;;;;;;;9.63;100.00;98813.53;5012913;28;20376;-76
2023/10/27 09:40:08;;;;;;;27.73;16.33;;;;;;;9.64;100.00;98810.50;5021383;28;20225;-77
2023/10/27 09:42:37;;;;;;;34.67;18.07;;;;;;;9.68;100.00;98818.47;5020890;28;20211;-76
2023/10/27 09:45:08;;;;;;;34.87;17.00;;;;;;;9.69;100.00;98814.72;5023927;28;20578;-74
2023/10/27 09:47:39;;;;;;;34.37;17.10;;;;;;;9.72;100.00;98811.34;5024549;28;20209;-74
2023/10/27 09:50:17;;;;;;;28.93;16.03;;;;;;;9.74;100.00;98809.88;5024385;28;20234;-75
2023/10/27 09:52:45;;;;;;;29.53;15.77;;;;;;;9.76;100.00;98806.88;5024212;28;20317;-76
2023/10/27 09:55:13;;;;;;;33.20;15.50;;;;;;;9.78;100.00;98818.56;5022928;28;20224;-74
2023/10/27 09:57:42;;;;;;;31.63;16.37;;;;;;;9.83;100.00;98815.59;5022760;28;20427;-73
2023/10/27 10:00:13;;;;;;;29.13;16.37;;;;;;;9.87;100.00;98818.28;5022721;28;20300;-74
2023/10/27 10:02:42;;;;;;;35.67;16.70;;;;;;;9.92;100.00;98817.94;5018895;28;20620;-74
2023/10/27 10:05:09;;;;;;;33.17;16.43;;;;;;;9.93;100.00;98808.94;5021169;28;20206;-76
2023/10/27 10:07:41;;;;;;;38.10;17.07;;;;;;;9.97;100.00;98814.97;5022409;28;21203;-75
2023/10/27 10:10:22;;;;;;;36.27;18.53;;;;;;;10.00;100.00;98820.28;5020815;28;20247;-74
2023/10/27 10:12:59;;;;;;;38.43;20.70;;;;;;;10.03;100.00;98810.88;5020210;28;20216;-75
2023/10/27 10:15:26;;;;;;;27.77;15.77;;;;;;;10.04;100.00;98809.81;5021022;28;20825;-74
2023/10/27 10:17:53;;;;;;;34.13;16.10;;;;;;;10.06;100.00;98805.69;5023419;28;20223;-73
2023/10/27 10:21:07;;;;;;;28.50;15.63;;;;;;;10.11;100.00;98800.09;5020255;28;20239;-73
2023/10/27 10:24:09;;;;;;;28.47;15.60;;;;;;;10.12;100.00;98801.59;5021691;28;20208;-74
2023/10/27 10:27:07;;;;;;;31.73;17.43;;;;;;;10.16;100.00;98804.25;5004075;28;20252;-73
2023/10/27 10:29:34;;;;;;;32.87;17.50;;;;;;;10.17;100.00;98803.13;5020774;28;20258;-74
2023/10/27 10:32:29;;;;;;;32.27;16.70;;;;;;;10.19;100.00;98803.53;5021545;28;21272;-73
2023/10/27 10:35:24;;;;;;;29.97;16.20;;;;;;;10.23;100.00;98802.44;5026113;28;20212;-74
2023/10/27 10:37:52;;;;;;;30.03;16.97;;;;;;;10.25;100.00;98794.91;5022601;28;20221;-75
2023/10/27 10:40:26;;;;;;;29.47;15.73;;;;;;;10.26;100.00;98795.66;5022157;28;20231;-74
2023/10/27 10:43:20;;;;;;;29.03;15.77;;;;;;;10.29;100.00;98785.13;5024751;28;20655;-74
2023/10/27 10:45:48;;;;;;;25.00;14.30;;;;;;;10.30;100.00;98780.63;5016971;28;20220;-73
2023/10/27 10:48:15;;;;;;;27.00;15.57;;;;;;;10.31;100.00;98777.59;5024207;28;20193;-72
2023/10/27 10:50:42;;;;;;;32.03;19.40;;;;;;;10.34;100.00;98786.66;5015281;28;20233;-74
2023/10/27 10:53:16;;;;;;;29.40;15.50;;;;;;;10.34;100.00;98782.16;5023861;28;20675;-74
2023/10/27 10:55:45;;;;;;;23.93;13.93;;;;;;;10.33;100.00;98779.88;5026147;28;20212;-74
2023/10/27 10:58:19;;;;;;;30.40;18.30;;;;;;;10.35;100.00;98786.31;5024067;28;20689;-73
2023/10/27 11:00:48;;;;;;;28.17;18.03;;;;;;;10.33;100.00;98778.00;5025166;28;20223;-76
2023/10/27 11:03:14;;;;;;;23.90;14.47;;;;;;;10.34;100.00;98784.03;5023776;28;20450;-72
2023/10/27 11:05:41;;;;;;;27.03;17.17;;;;;;;10.34;100.00;98781.38;5024407;28;20235;-73
2023/10/27 11:08:08;;;;;;;26.50;15.23;;;;;;;10.32;100.00;98775.72;5021467;28;20209;-75
2023/10/27 11:10:35;;;;;;;22.57;13.47;;;;;;;10.32;100.00;98775.72;5019860;28;20231;-74
2023/10/27 11:13:04;;;;;;;22.93;13.77;;;;;;;10.31;100.00;98774.22;5022827;28;21854;-76
2023/10/27 11:15:44;;;;;;;22.40;15.17;;;;;;;10.31;100.00;98776.88;5020056;28;20211;-76
2023/10/27 11:18:14;;;;;;;24.63;15.73;;;;;;;10.30;100.00;98775.34;5022616;28;20598;-74
2023/10/27 11:20:43;;;;;;;23.30;15.63;;;;;;;10.29;100.00;98773.81;5019887;28;20235;-73
2023/10/27 11:23:11;;;;;;;24.70;14.87;;;;;;;10.28;100.00;98781.00;5020680;28;20673;-73
2023/10/27 11:25:39;;;;;;;30.80;20.80;;;;;;;10.28;100.00;98783.63;5019744;28;20297;-73
2023/10/27 11:28:20;;;;;;;24.40;14.40;;;;;;;10.28;100.00;98790.78;5020701;28;20209;-75
2023/10/27 11:31:01;;;;;;;23.20;16.93;;;;;;;10.25;100.00;98789.63;5021627;28;20381;-74